Time;durP1;ratioP1;P1;durP2;ratioP2;P2;SDS_P1;SDS_P2;PMS_P1;PMS_P2;Temp;Humidity;BMP_temperature;BMP_pressure;BME280_temperature;BME280_humidity;BME280_pressure;Samples;Min_cycle;Max_cycle;Signal;HPM_P1;HPM_P2
2022/08/04 00:02:20;;;;;;;0.20;0.20;;;25.90;81.90;;;;;;4991776;28;20517;-72
2022/08/04 00:05:02;;;;;;;0.22;0.22;;;25.90;82.50;;;;;;4959887;28;20053;-71
2022/08/04 00:07:58;;;;;;;0.30;0.22;;;26.00;82.40;;;;;;4991487;28;20041;-72
2022/08/04 00:10:26;;;;;;;0.35;0.35;;;26.00;82.20;;;;;;4992267;28;20038;-71
2022/08/04 00:12:55;;;;;;;0.60;0.30;;;26.00;82.60;;;;;;4991172;28;20026;-72
2022/08/04 00:15:22;;;;;;;2.47;1.42;;;26.10;82.90;;;;;;4991645;28;20032;-73
2022/08/04 00:18:06;;;;;;;0.40;0.28;;;26.10;83.30;;;;;;4991717;28;20026;-71
2022/08/04 00:20:36;;;;;;;0.00;0.00;;;26.10;83.40;;;;;;4975193;28;20084;-72
2022/08/04 00:23:04;;;;;;;0.57;0.57;;;26.10;82.80;;;;;;4992237;28;20093;-71
2022/08/04 00:25:30;;;;;;;1.75;0.95;;;26.10;83.60;;;;;;4990875;28;20042;-70
2022/08/04 00:27:58;;;;;;;0.00;0.00;;;26.00;84.20;;;;;;4992570;28;20109;-70
2022/08/04 00:30:24;;;;;;;0.85;0.43;;;26.00;84.50;;;;;;4990711;28;20030;-70
2022/08/04 00:32:51;;;;;;;0.15;0.15;;;26.00;84.90;;;;;;4990996;28;20383;-70
2022/08/04 00:35:17;;;;;;;1.33;0.52;;;25.90;84.80;;;;;;4991081;28;20472;-70
2022/08/04 00:37:46;;;;;;;0.20;0.20;;;25.80;85.50;;;;;;4992575;28;20072;-70
2022/08/04 00:40:44;;;;;;;0.15;0.15;;;25.60;86.00;;;;;;4991838;28;20033;-70
2022/08/04 00:43:44;;;;;;;2.88;1.50;;;25.20;87.60;;;;;;4980357;28;20117;-72
2022/08/04 00:46:27;;;;;;;0.10;0.03;;;25.00;88.60;;;;;;4991283;28;20026;-71
2022/08/04 00:49:50;;;;;;;1.38;0.98;;;25.00;89.10;;;;;;4992162;28;20034;-72
2022/08/04 00:53:00;;;;;;;0.13;0.13;;;25.00;89.50;;;;;;4968650;28;20506;-71
2022/08/04 00:56:03;;;;;;;0.28;0.28;;;24.80;89.60;;;;;;4992272;28;20031;-71
2022/08/04 00:59:01;;;;;;;0.10;0.10;;;24.80;90.20;;;;;;4991011;28;20096;-71
2022/08/04 01:02:00;;;;;;;1.45;0.70;;;24.70;90.60;;;;;;4991813;28;20030;-71
2022/08/04 01:04:51;;;;;;;0.00;0.00;;;24.70;90.70;;;;;;4987628;28;20034;-71
2022/08/04 01:07:49;;;;;;;0.47;0.47;;;24.70;91.00;;;;;;4985567;28;20026;-72
2022/08/04 01:11:07;;;;;;;0.15;0.15;;;24.70;91.60;;;;;;4988495;28;20506;-71
2022/08/04 01:13:44;;;;;;;0.05;0.00;;;24.60;92.20;;;;;;4958478;28;20042;-70
2022/08/04 01:16:15;;;;;;;0.35;0.35;;;24.50;93.20;;;;;;4991992;28;20034;-71
2022/08/04 01:19:04;;;;;;;0.40;0.40;;;24.40;94.20;;;;;;4990549;28;20023;-71
2022/08/04 01:21:54;;;;;;;0.20;0.10;;;24.20;95.10;;;;;;4991631;28;20085;-72
2022/08/04 01:24:58;;;;;;;0.55;0.40;;;24.20;95.40;;;;;;4991748;28;20041;-72
2022/08/04 01:28:11;;;;;;;0.05;0.00;;;24.20;95.80;;;;;;4991342;28;20130;-71
2022/08/04 01:30:41;;;;;;;1.25;0.55;;;24.20;96.10;;;;;;4991383;28;20033;-72
2022/08/04 01:33:15;;;;;;;0.30;0.25;;;24.30;96.10;;;;;;4977424;28;20034;-71
2022/08/04 01:35:49;;;;;;;0.95;0.43;;;24.30;96.40;;;;;;4995688;28;20026;-71
2022/08/04 01:38:29;;;;;;;0.08;0.08;;;24.20;96.40;;;;;;4994243;28;20030;-71
2022/08/04 01:41:06;;;;;;;0.20;0.20;;;24.20;96.30;;;;;;4994939;28;20026;-71
2022/08/04 01:43:39;;;;;;;0.30;0.30;;;24.20;96.30;;;;;;4995198;28;20034;-71
2022/08/04 01:46:04;;;;;;;0.43;0.40;;;24.20;96.20;;;;;;4995397;28;20034;-72
2022/08/04 01:48:31;;;;;;;0.08;0.08;;;24.20;96.10;;;;;;4995449;28;20513;-71
2022/08/04 01:51:03;;;;;;;0.30;0.30;;;24.20;96.70;;;;;;4993449;28;20061;-71
2022/08/04 01:53:32;;;;;;;0.10;0.10;;;24.30;96.80;;;;;;4993518;28;20034;-71
2022/08/04 01:56:01;;;;;;;0.28;0.28;;;24.30;96.70;;;;;;4995475;28;20058;-70
2022/08/04 01:58:30;;;;;;;0.30;0.25;;;24.30;96.50;;;;;;4994174;28;20073;-71
2022/08/04 02:01:06;;;;;;;0.17;0.17;;;24.30;97.10;;;;;;4994857;28;20038;-71
2022/08/04 02:03:33;;;;;;;0.55;0.55;;;24.30;97.30;;;;;;4994867;28;20411;-70
2022/08/04 02:06:19;;;;;;;1.77;0.60;;;24.40;97.60;;;;;;4995142;28;20045;-70
2022/08/04 02:08:55;;;;;;;0.30;0.30;;;24.50;97.70;;;;;;4994360;28;20041;-70
2022/08/04 02:11:22;;;;;;;0.20;0.20;;;24.50;97.30;;;;;;4993771;28;20073;-71
2022/08/04 02:14:40;;;;;;;0.30;0.22;;;24.50;97.20;;;;;;4994569;28;20023;-71
2022/08/04 02:17:14;;;;;;;0.98;0.40;;;24.20;97.60;;;;;;4974193;28;20031;-71
2022/08/04 02:19:56;;;;;;;0.68;0.52;;;24.20;98.10;;;;;;4974990;28;20027;-71
2022/08/04 02:22:25;;;;;;;0.50;0.38;;;24.10;98.20;;;;;;4975195;28;20046;-71
2022/08/04 02:25:06;;;;;;;1.70;1.27;;;24.10;98.20;;;;;;4973716;28;20082;-71
2022/08/04 02:28:02;;;;;;;0.90;0.30;;;24.20;98.30;;;;;;4974454;28;20030;-70
2022/08/04 02:30:39;;;;;;;0.35;0.35;;;24.20;98.40;;;;;;4973620;28;20388;-71
2022/08/04 02:33:08;;;;;;;0.10;0.10;;;24.20;98.50;;;;;;4974088;28;20026;-71
2022/08/04 02:35:37;;;;;;;0.40;0.40;;;24.20;98.70;;;;;;4973887;28;20058;-71
2022/08/04 02:38:33;;;;;;;0.25;0.25;;;24.10;99.20;;;;;;4973737;28;20436;-70
2022/08/04 02:41:00;;;;;;;0.30;0.30;;;24.00;99.80;;;;;;4973609;28;20027;-70
2022/08/04 02:43:28;;;;;;;0.40;0.40;;;23.90;99.90;;;;;;4973349;28;20084;-71
2022/08/04 02:45:58;;;;;;;0.00;0.00;;;23.80;99.90;;;;;;4973729;28;20134;-70
2022/08/04 02:48:26;;;;;;;0.15;0.10;;;23.80;99.90;;;;;;4973772;28;20026;-70
2022/08/04 02:50:54;;;;;;;15.35;0.55;;;23.70;99.90;;;;;;4974252;28;20053;-70
2022/08/04 02:53:22;;;;;;;0.47;0.40;;;23.70;99.90;;;;;;4973202;28;20042;-71
2022/08/04 02:55:51;;;;;;;0.00;0.00;;;23.70;99.90;;;;;;4973640;28;20037;-71
2022/08/04 02:58:19;;;;;;;0.22;0.22;;;23.60;99.90;;;;;;4973302;28;20031;-71
2022/08/04 03:00:47;;;;;;;1.48;0.20;;;23.60;99.90;;;;;;4974089;28;20110;-71
2022/08/04 03:04:00;;;;;;;0.45;0.35;;;23.60;99.90;;;;;;4980013;28;20065;-71
2022/08/04 03:06:57;;;;;;;1.48;0.70;;;23.50;99.90;;;;;;4992333;28;20037;-70
2022/08/04 03:09:56;;;;;;;0.20;0.13;;;23.50;99.90;;;;;;4993310;28;20034;-71
2022/08/04 03:13:06;;;;;;;0.20;0.20;;;23.40;99.90;;;;;;4993427;28;20034;-71
2022/08/04 03:15:41;;;;;;;0.30;0.30;;;23.50;99.90;;;;;;4965717;28;20050;-71
2022/08/04 03:18:28;;;;;;;0.32;0.30;;;23.50;99.90;;;;;;4993549;28;20124;-70
2022/08/04 03:21:06;;;;;;;0.03;0.03;;;23.50;99.90;;;;;;4993271;28;20038;-71
2022/08/04 03:24:27;;;;;;;0.47;0.47;;;23.50;99.90;;;;;;4993191;28;20034;-71
2022/08/04 03:27:15;;;;;;;;;;;23.50;99.90;;;;;;4993021;28;20027;-71
2022/08/04 03:29:54;;;;;;;0.32;0.32;;;23.40;99.90;;;;;;4991924;28;19964;-71
2022/08/04 03:33:14;;;;;;;0.32;0.32;;;23.50;99.90;;;;;;4992071;28;20030;-71
2022/08/04 03:36:34;;;;;;;0.43;0.38;;;23.50;99.90;;;;;;4993419;28;20370;-71
2022/08/04 03:39:43;;;;;;;0.13;0.13;;;23.60;99.90;;;;;;4972318;28;20050;-71
2022/08/04 03:42:52;;;;;;;1.23;1.08;;;23.80;99.90;;;;;;4973717;28;20042;-70
2022/08/04 03:45:53;;;;;;;0.25;0.10;;;23.90;99.70;;;;;;4974304;28;20042;-71
2022/08/04 03:48:27;;;;;;;0.10;0.10;;;24.10;98.90;;;;;;4972536;28;20069;-71
2022/08/04 03:54:48;;;;;;;9.75;0.73;;;24.20;97.70;;;;;;4971873;28;20037;-71
2022/08/04 03:58:08;;;;;;;1.17;0.73;;;24.20;97.60;;;;;;4973822;28;20134;-71
2022/08/04 04:01:20;;;;;;;0.50;0.45;;;23.90;98.00;;;;;;4973087;28;20045;-71
2022/08/04 04:04:15;;;;;;;0.73;0.73;;;23.80;98.60;;;;;;4972768;28;20138;-71
2022/08/04 04:07:08;;;;;;;0.68;0.45;;;23.80;98.90;;;;;;4973446;28;20595;-70
2022/08/04 04:10:01;;;;;;;0.20;0.20;;;24.00;98.80;;;;;;4973099;28;20030;-70
2022/08/04 04:12:36;;;;;;;1.60;0.98;;;24.10;98.60;;;;;;4972982;28;20049;-72
2022/08/04 04:15:56;;;;;;;0.38;0.30;;;24.20;98.50;;;;;;4978188;28;20137;-71
2022/08/04 04:18:52;;;;;;;1.35;0.75;;;24.20;98.20;;;;;;4992983;28;20109;-72
2022/08/04 04:21:46;;;;;;;0.10;0.10;;;24.30;98.00;;;;;;4992233;28;20137;-72
2022/08/04 04:24:40;;;;;;;0.40;0.40;;;24.40;98.40;;;;;;4990938;28;20487;-72
2022/08/04 04:27:47;;;;;;;0.10;0.10;;;24.40;97.90;;;;;;4992392;28;20093;-72
2022/08/04 04:30:34;;;;;;;2.30;0.80;;;24.20;98.10;;;;;;4991583;28;20572;-72
2022/08/04 04:33:46;;;;;;;0.57;0.30;;;24.10;98.50;;;;;;4990957;28;20475;-72
2022/08/04 04:36:39;;;;;;;0.35;0.35;;;24.10;98.80;;;;;;4944629;28;20372;-72
2022/08/04 04:39:24;;;;;;;0.52;0.52;;;24.10;98.90;;;;;;4990888;28;20022;-71
2022/08/04 04:42:17;;;;;;;1.10;1.00;;;24.20;98.90;;;;;;4990995;28;20023;-70
2022/08/04 04:45:13;;;;;;;0.22;0.10;;;24.30;98.70;;;;;;4992365;28;20034;-70
2022/08/04 04:48:08;;;;;;;0.25;0.25;;;24.40;98.30;;;;;;4992328;28;20038;-70
2022/08/04 04:50:55;;;;;;;0.70;0.70;;;24.50;98.10;;;;;;4990574;28;20022;-70
2022/08/04 04:53:45;;;;;;;0.03;0.03;;;24.60;97.90;;;;;;4990565;28;20113;-70
2022/08/04 04:56:21;;;;;;;0.20;0.20;;;24.60;97.70;;;;;;4991708;28;20058;-71
2022/08/04 04:58:50;;;;;;;0.20;0.20;;;24.60;97.50;;;;;;4991780;28;20045;-70
2022/08/04 05:01:37;;;;;;;0.52;0.45;;;24.60;97.40;;;;;;4989971;28;20031;-71
2022/08/04 05:04:24;;;;;;;0.38;0.38;;;24.70;97.40;;;;;;4991389;28;20030;-71
2022/08/04 05:07:18;;;;;;;0.22;0.20;;;24.70;97.20;;;;;;4989190;28;20121;-70
2022/08/04 05:10:02;;;;;;;0.32;0.32;;;24.50;97.30;;;;;;4991065;28;20486;-71
2022/08/04 05:12:41;;;;;;;0.00;0.00;;;24.40;97.50;;;;;;4982387;28;20034;-71
2022/08/04 05:15:09;;;;;;;0.00;0.00;;;24.40;97.70;;;;;;4990818;28;20077;-70
2022/08/04 05:17:39;;;;;;;4.30;0.25;;;24.50;97.40;;;;;;4987725;28;20042;-70
2022/08/04 05:20:34;;;;;;;;;;;24.40;97.10;;;;;;4989173;28;20045;-69
2022/08/04 05:23:28;;;;;;;1.40;0.57;;;24.50;97.20;;;;;;4971553;28;19932;-70
2022/08/04 05:26:11;;;;;;;0.70;0.45;;;24.50;97.00;;;;;;4969387;28;20070;-69
2022/08/04 05:28:53;;;;;;;0.00;0.00;;;24.50;97.00;;;;;;4970592;28;20055;-69
2022/08/04 05:31:33;;;;;;;0.30;0.30;;;24.50;96.90;;;;;;4970592;28;20034;-70
2022/08/04 05:34:12;;;;;;;0.40;0.20;;;24.40;97.00;;;;;;4970195;28;20086;-71
2022/08/04 05:36:54;;;;;;;0.63;0.63;;;24.30;97.10;;;;;;4959590;28;20026;-72
2022/08/04 05:39:29;;;;;;;0.35;0.35;;;24.20;97.30;;;;;;4989793;28;20033;-72
2022/08/04 05:41:57;;;;;;;0.55;0.52;;;24.20;97.30;;;;;;4987278;28;20027;-72
2022/08/04 05:44:31;;;;;;;0.98;0.88;;;24.30;97.60;;;;;;4971049;28;20041;-72
2022/08/04 05:46:58;;;;;;;0.20;0.20;;;24.30;97.40;;;;;;4973499;28;20169;-71
2022/08/04 05:49:27;;;;;;;0.65;0.32;;;24.30;97.20;;;;;;4989437;28;20075;-67
2022/08/04 05:51:59;;;;;;;0.35;0.35;;;24.30;97.10;;;;;;4973427;28;20390;-76
2022/08/04 05:54:26;;;;;;;16.25;1.85;;;24.40;97.10;;;;;;4989267;28;20033;-73
2022/08/04 05:56:55;;;;;;;0.35;0.15;;;24.50;97.00;;;;;;4990765;28;20513;-73
2022/08/04 05:59:24;;;;;;;0.43;0.28;;;24.50;97.10;;;;;;4989421;28;20559;-77
2022/08/04 06:01:54;;;;;;;1.10;0.57;;;24.60;96.80;;;;;;4984528;28;20030;-73
2022/08/04 06:04:25;;;;;;;1.92;1.10;;;24.60;96.80;;;;;;4986117;28;20042;-73
2022/08/04 06:06:51;;;;;;;0.95;0.90;;;24.70;96.80;;;;;;4986185;28;20035;-73
2022/08/04 06:09:17;;;;;;;3.47;2.35;;;24.80;97.00;;;;;;4969892;28;20034;-73
2022/08/04 06:11:45;;;;;;;0.22;0.22;;;24.90;96.70;;;;;;4984035;28;20451;-72
2022/08/04 06:14:14;;;;;;;20.05;1.48;;;24.90;96.30;;;;;;4971319;28;20048;-73
2022/08/04 06:16:43;;;;;;;0.98;0.88;;;24.90;96.20;;;;;;4971569;28;20070;-72
2022/08/04 06:19:13;;;;;;;0.47;0.35;;;25.10;96.70;;;;;;4974313;28;20069;-73
2022/08/04 06:21:47;;;;;;;0.08;0.08;;;25.20;96.10;;;;;;4973773;28;20118;-73
2022/08/04 06:24:22;;;;;;;0.60;0.57;;;25.30;95.50;;;;;;4973662;28;20035;-72
2022/08/04 06:26:50;;;;;;;0.60;0.55;;;25.30;95.20;;;;;;4973449;28;20444;-72
2022/08/04 06:29:35;;;;;;;0.68;0.60;;;25.40;95.00;;;;;;4957665;28;20031;-73
2022/08/04 06:32:12;;;;;;;0.90;0.73;;;25.40;94.40;;;;;;4973569;28;20101;-73
2022/08/04 06:34:39;;;;;;;1.48;0.60;;;25.40;94.40;;;;;;4973777;28;20027;-72
2022/08/04 06:37:07;;;;;;;0.40;0.40;;;25.40;94.30;;;;;;4957728;28;20034;-74
2022/08/04 06:39:36;;;;;;;19.63;2.15;;;25.50;94.30;;;;;;4973252;28;20054;-73
2022/08/04 06:42:03;;;;;;;13.85;1.80;;;25.50;94.20;;;;;;4975993;28;20034;-72
2022/08/04 06:44:30;;;;;;;1.05;1.02;;;25.50;94.10;;;;;;4993195;28;20038;-75
2022/08/04 06:46:57;;;;;;;0.47;0.40;;;25.50;94.10;;;;;;4993353;28;20070;-75
2022/08/04 06:49:24;;;;;;;0.73;0.73;;;25.60;93.90;;;;;;4994001;28;20085;-75
2022/08/04 06:51:51;;;;;;;10.63;1.73;;;25.70;93.80;;;;;;4994079;28;20544;-76
2022/08/04 06:54:17;;;;;;;0.45;0.40;;;25.80;93.80;;;;;;4992818;28;20499;-73
2022/08/04 06:56:44;;;;;;;1.02;0.73;;;25.90;93.30;;;;;;4992953;28;20034;-73
2022/08/04 06:59:12;;;;;;;0.20;0.20;;;25.90;93.10;;;;;;4992315;28;20443;-76
2022/08/04 07:01:39;;;;;;;0.28;0.28;;;25.90;93.20;;;;;;4992660;28;20081;-74
2022/08/04 07:04:05;;;;;;;0.98;0.77;;;26.00;93.20;;;;;;4991715;28;20027;-75
2022/08/04 07:06:32;;;;;;;1.55;0.30;;;26.10;93.00;;;;;;4992746;28;20045;-73
2022/08/04 07:08:58;;;;;;;0.28;0.22;;;26.30;92.90;;;;;;4992233;28;20045;-73
2022/08/04 07:11:26;;;;;;;3.92;1.38;;;26.40;92.00;;;;;;5008853;28;20033;-75
2022/08/04 07:13:53;;;;;;;0.00;0.00;;;26.50;92.10;;;;;;4993220;28;20053;-73
2022/08/04 07:16:20;;;;;;;0.52;0.45;;;26.70;91.70;;;;;;4993385;28;20033;-75
2022/08/04 07:18:46;;;;;;;2.58;1.58;;;26.80;91.40;;;;;;4990942;28;20045;-74
2022/08/04 07:21:21;;;;;;;0.00;0.00;;;26.80;91.30;;;;;;4991139;28;20038;-74
2022/08/04 07:23:47;;;;;;;1.75;0.90;;;27.00;90.70;;;;;;4988790;28;20110;-75
2022/08/04 07:26:16;;;;;;;0.40;0.30;;;27.10;90.70;;;;;;4973984;28;20031;-75
2022/08/04 07:28:41;;;;;;;0.00;0.00;;;27.10;90.90;;;;;;4987945;28;20039;-75
2022/08/04 07:31:15;;;;;;;0.15;0.15;;;27.20;90.50;;;;;;4974375;28;20042;-74
2022/08/04 07:33:42;;;;;;;0.10;0.10;;;27.30;91.20;;;;;;4975686;28;20104;-72
2022/08/04 07:36:08;;;;;;;0.43;0.43;;;27.40;90.50;;;;;;4989943;28;20026;-72
2022/08/04 07:38:34;;;;;;;0.47;0.20;;;27.50;90.30;;;;;;4974436;28;20034;-74
2022/08/04 07:41:02;;;;;;;4.25;1.60;;;27.60;89.90;;;;;;4980990;28;20054;-83
2022/08/04 07:43:30;;;;;;;1.45;0.47;;;27.70;89.70;;;;;;5015557;28;20060;-81
2022/08/04 07:45:56;;;;;;;0.00;0.00;;;27.90;88.00;;;;;;4998896;28;20038;-81
2022/08/04 07:48:23;;;;;;;0.20;0.20;;;28.10;87.20;;;;;;4996472;28;20037;-80
2022/08/04 07:50:50;;;;;;;0.10;0.10;;;28.30;85.70;;;;;;4994553;28;20041;-81
2022/08/04 07:53:17;;;;;;;3.45;0.75;;;28.40;85.10;;;;;;4993606;28;20386;-81
2022/08/04 07:55:47;;;;;;;1.40;0.52;;;28.50;85.60;;;;;;4992188;28;20459;-80
2022/08/04 07:58:12;;;;;;;0.00;0.00;;;28.60;85.20;;;;;;4994225;28;20049;-81
2022/08/04 08:00:38;;;;;;;0.75;0.52;;;28.70;84.70;;;;;;4998279;28;20038;-81
2022/08/04 08:03:06;;;;;;;0.00;0.00;;;28.80;83.30;;;;;;5007457;28;20082;-83
2022/08/04 08:05:32;;;;;;;0.17;0.17;;;28.90;82.70;;;;;;5013296;28;20029;-81
2022/08/04 08:07:58;;;;;;;0.22;0.22;;;29.10;81.80;;;;;;4995765;28;20371;-82
2022/08/04 08:10:24;;;;;;;0.32;0.30;;;29.10;81.60;;;;;;4996025;28;20509;-81
2022/08/04 08:12:52;;;;;;;0.00;0.00;;;29.10;81.10;;;;;;4984601;28;20023;-78
2022/08/04 08:15:18;;;;;;;0.13;0.13;;;29.20;80.90;;;;;;4972280;28;20033;-79
2022/08/04 08:17:44;;;;;;;0.17;0.08;;;29.30;81.10;;;;;;4972529;28;20031;-80
2022/08/04 08:20:10;;;;;;;1.35;0.73;;;29.50;81.60;;;;;;4972907;28;20045;-81
2022/08/04 08:22:37;;;;;;;0.10;0.10;;;29.50;81.90;;;;;;4973439;28;20263;-79
2022/08/04 08:25:05;;;;;;;0.10;0.10;;;29.60;80.90;;;;;;4973147;28;20117;-76
2022/08/04 08:27:32;;;;;;;1.65;1.02;;;29.60;81.10;;;;;;4971634;28;20034;-78
2022/08/04 08:29:58;;;;;;;0.55;0.52;;;29.70;81.60;;;;;;4972348;28;20102;-80
2022/08/04 08:32:25;;;;;;;1.25;0.63;;;29.70;80.70;;;;;;4972641;28;20037;-79
2022/08/04 08:34:51;;;;;;;0.30;0.20;;;29.80;80.90;;;;;;4973609;28;20023;-79
2022/08/04 08:37:51;;;;;;;0.30;0.20;;;29.80;81.00;;;;;;4973435;28;20030;-78
2022/08/04 08:40:23;;;;;;;0.40;0.35;;;29.90;80.40;;;;;;4971012;28;20386;-69
2022/08/04 08:43:29;;;;;;;0.35;0.35;;;29.90;79.90;;;;;;4972336;28;20039;-70
2022/08/04 08:46:13;;;;;;;0.30;0.10;;;30.10;79.80;;;;;;4971193;28;20035;-69
2022/08/04 08:49:06;;;;;;;0.30;0.22;;;30.20;79.20;;;;;;4972512;28;20035;-69
2022/08/04 08:52:09;;;;;;;0.10;0.10;;;30.20;78.80;;;;;;4972569;28;20471;-69
2022/08/04 08:55:09;;;;;;;0.20;0.20;;;30.40;78.40;;;;;;4969271;28;20046;-69
2022/08/04 08:58:22;;;;;;;5.55;1.75;;;30.40;78.70;;;;;;4971349;28;20123;-69
2022/08/04 09:01:50;;;;;;;0.15;0.15;;;30.50;78.70;;;;;;4971551;28;20034;-70
2022/08/04 09:04:28;;;;;;;0.40;0.40;;;30.60;78.90;;;;;;4972792;28;20041;-70
2022/08/04 09:07:23;;;;;;;1.23;0.52;;;30.80;78.50;;;;;;4971573;28;20030;-72
2022/08/04 09:10:15;;;;;;;0.25;0.10;;;30.80;77.90;;;;;;4970942;28;20081;-71
2022/08/04 09:12:46;;;;;;;0.20;0.15;;;31.00;77.70;;;;;;4970221;28;20073;-72
2022/08/04 09:15:20;;;;;;;7.93;2.10;;;31.10;77.70;;;;;;4973686;28;20028;-71
2022/08/04 09:18:16;;;;;;;5.18;1.10;;;31.10;77.90;;;;;;4990578;28;20030;-71
2022/08/04 09:21:21;;;;;;;0.45;0.40;;;31.20;78.10;;;;;;4989409;28;20058;-73
2022/08/04 09:24:25;;;;;;;0.17;0.17;;;31.20;77.80;;;;;;4976068;28;20133;-71
2022/08/04 09:27:00;;;;;;;5.30;0.45;;;31.40;77.70;;;;;;4985609;28;20152;-72
2022/08/04 09:29:38;;;;;;;0.85;0.68;;;31.40;77.20;;;;;;4971809;28;20023;-71
2022/08/04 09:32:18;;;;;;;2.30;1.25;;;31.50;77.60;;;;;;4972026;28;20121;-71
2022/08/04 09:35:25;;;;;;;;;;;31.60;77.50;;;;;;4972452;28;20038;-72
2022/08/04 09:37:57;;;;;;;1.17;0.90;;;31.70;76.40;;;;;;4960178;28;19961;-71
2022/08/04 09:40:52;;;;;;;0.10;0.10;;;31.70;76.60;;;;;;4986091;28;20529;-72
2022/08/04 09:43:31;;;;;;;3.30;1.08;;;31.80;76.10;;;;;;4957387;28;20439;-72
2022/08/04 09:46:18;;;;;;;1.58;0.90;;;31.80;75.60;;;;;;4991221;28;20034;-73
2022/08/04 09:49:01;;;;;;;0.20;0.10;;;31.80;75.80;;;;;;4989449;28;20026;-73
2022/08/04 09:51:52;;;;;;;1.48;1.20;;;32.00;76.00;;;;;;4990425;28;20034;-72
2022/08/04 09:54:50;;;;;;;0.32;0.32;;;32.10;75.20;;;;;;4994405;28;20042;-72
2022/08/04 09:57:30;;;;;;;0.90;0.55;;;32.10;74.80;;;;;;4995286;28;20019;-73
2022/08/04 10:00:10;;;;;;;0.88;0.73;;;32.30;75.00;;;;;;4994527;28;20033;-72
2022/08/04 10:02:49;;;;;;;0.38;0.32;;;32.30;75.40;;;;;;4994015;28;20036;-73
2022/08/04 10:05:21;;;;;;;1.98;1.65;;;32.40;74.50;;;;;;4977748;28;20026;-71
2022/08/04 10:08:17;;;;;;;0.28;0.20;;;32.50;74.70;;;;;;4993478;28;20031;-72
2022/08/04 10:11:15;;;;;;;0.30;0.30;;;32.60;74.40;;;;;;4994221;28;20065;-72
2022/08/04 10:13:59;;;;;;;1.55;0.70;;;32.90;73.50;;;;;;4992655;28;20482;-72
2022/08/04 10:16:48;;;;;;;1.17;0.82;;;33.10;72.80;;;;;;4993632;28;20101;-72
2022/08/04 10:19:27;;;;;;;1.42;0.47;;;33.20;71.30;;;;;;4994440;28;20038;-72
2022/08/04 10:22:24;;;;;;;0.25;0.25;;;33.20;70.80;;;;;;4993045;28;20042;-73
2022/08/04 10:25:29;;;;;;;0.30;0.20;;;33.40;70.00;;;;;;4992233;28;20046;-71
2022/08/04 10:28:02;;;;;;;5.85;0.75;;;33.60;70.10;;;;;;4993276;28;20042;-72
2022/08/04 10:30:32;;;;;;;0.70;0.45;;;33.50;69.30;;;;;;4994081;28;20033;-71
2022/08/04 10:33:03;;;;;;;3.90;0.65;;;33.50;69.00;;;;;;4992976;28;20050;-71
2022/08/04 10:35:45;;;;;;;0.57;0.57;;;33.70;69.50;;;;;;4994029;28;20101;-69
2022/08/04 10:38:28;;;;;;;0.10;0.10;;;33.90;68.80;;;;;;4993002;28;20062;-67
2022/08/04 10:42:06;;;;;;;1.65;0.47;;;34.00;67.70;;;;;;4992827;28;20026;-69
2022/08/04 10:45:02;;;;;;;0.10;0.10;;;34.20;68.00;;;;;;4933519;29;20036;-70
2022/08/04 10:47:40;;;;;;;3.00;0.20;;;34.40;68.00;;;;;;4919355;29;20047;-71
2022/08/04 10:50:09;;;;;;;0.43;0.15;;;34.60;67.60;;;;;;4991292;28;20042;-67
2022/08/04 10:52:54;;;;;;;0.77;0.63;;;34.70;67.60;;;;;;4992391;28;20080;-71
2022/08/04 10:55:51;;;;;;;0.57;0.57;;;34.70;67.20;;;;;;4993599;28;20034;-72
2022/08/04 10:58:24;;;;;;;0.30;0.30;;;34.70;68.10;;;;;;4992428;28;20034;-72
2022/08/04 11:00:58;;;;;;;0.32;0.25;;;34.90;67.10;;;;;;4992384;28;20031;-72
2022/08/04 11:03:44;;;;;;;0.88;0.70;;;35.20;66.60;;;;;;4993241;28;20117;-71
2022/08/04 11:06:10;;;;;;;1.88;0.70;;;35.50;66.80;;;;;;4993052;28;20114;-71
2022/08/04 11:08:47;;;;;;;9.00;2.00;;;35.40;65.10;;;;;;4993183;28;20022;-71
2022/08/04 11:11:40;;;;;;;4.30;1.65;;;35.40;64.20;;;;;;4992279;28;20037;-71
2022/08/04 11:14:30;;;;;;;0.13;0.10;;;35.60;65.10;;;;;;4991806;28;20113;-71
2022/08/04 11:17:19;;;;;;;0.05;0.05;;;35.60;64.00;;;;;;4992771;28;20441;-71
2022/08/04 11:20:07;;;;;;;0.00;0.00;;;35.80;64.10;;;;;;4991849;28;20125;-68
2022/08/04 11:22:43;;;;;;;0.10;0.10;;;35.90;63.30;;;;;;4991684;28;20114;-70
2022/08/04 11:25:21;;;;;;;0.17;0.17;;;35.80;62.40;;;;;;4992078;28;20026;-71
2022/08/04 11:28:26;;;;;;;0.00;0.00;;;35.60;62.10;;;;;;4993285;28;20030;-71
2022/08/04 11:30:57;;;;;;;1.65;1.48;;;36.20;63.60;;;;;;4992435;28;20108;-70
2022/08/04 11:33:40;;;;;;;9.85;1.65;;;36.60;62.20;;;;;;4988683;28;20371;-68
2022/08/04 11:36:25;;;;;;;0.63;0.55;;;36.60;61.70;;;;;;4973800;28;20030;-66
2022/08/04 11:39:17;;;;;;;0.47;0.30;;;36.30;61.10;;;;;;4973288;28;20372;-68
2022/08/04 11:42:21;;;;;;;0.10;0.10;;;36.40;60.20;;;;;;4987906;28;20070;-69
2022/08/04 11:45:00;;;;;;;0.10;0.10;;;36.60;60.80;;;;;;4991637;28;20513;-69
2022/08/04 11:47:38;;;;;;;0.10;0.10;;;36.40;59.10;;;;;;4991188;28;20104;-69
2022/08/04 11:50:37;;;;;;;0.28;0.22;;;36.60;59.30;;;;;;4992872;28;20023;-70
2022/08/04 11:53:04;;;;;;;0.38;0.22;;;36.90;58.90;;;;;;4991079;28;20041;-68
2022/08/04 11:55:32;;;;;;;0.88;0.30;;;37.50;58.20;;;;;;4991297;28;20545;-70
2022/08/04 11:57:58;;;;;;;0.22;0.20;;;38.00;57.20;;;;;;4991449;28;20026;-69
2022/08/04 12:00:28;;;;;;;0.25;0.22;;;38.20;55.90;;;;;;4992235;28;20072;-69
2022/08/04 12:03:35;;;;;;;0.08;0.08;;;38.00;55.90;;;;;;4991005;28;20061;-69
2022/08/04 12:06:17;;;;;;;0.40;0.30;;;38.50;55.80;;;;;;4992793;28;20125;-69
2022/08/04 12:09:17;;;;;;;1.08;0.47;;;38.10;55.60;;;;;;4992498;28;20034;-69
2022/08/04 12:12:26;;;;;;;0.38;0.35;;;38.50;55.10;;;;;;4991140;28;20026;-68
2022/08/04 12:14:57;;;;;;;2.28;0.22;;;38.20;54.00;;;;;;4992494;28;20482;-68
2022/08/04 12:18:31;;;;;;;0.00;0.00;;;38.20;54.10;;;;;;4974897;28;20058;-69
2022/08/04 12:21:22;;;;;;;1.17;0.52;;;38.20;54.30;;;;;;4991597;28;20046;-71
2022/08/04 12:23:50;;;;;;;3.50;0.55;;;38.40;53.80;;;;;;4991180;28;20034;-66
2022/08/04 12:26:41;;;;;;;0.00;0.00;;;38.40;53.90;;;;;;4949698;28;20101;-68
2022/08/04 12:29:10;;;;;;;0.10;0.10;;;37.90;52.70;;;;;;4974137;28;20474;-69
2022/08/04 12:31:55;;;;;;;0.00;0.00;;;38.30;54.60;;;;;;4989287;28;20034;-68
2022/08/04 12:34:44;;;;;;;0.65;0.55;;;37.90;54.40;;;;;;4990579;28;20042;-69
2022/08/04 12:37:36;;;;;;;0.20;0.20;;;38.40;53.40;;;;;;4991046;28;20072;-69
2022/08/04 12:40:19;;;;;;;1.35;0.70;;;38.80;53.70;;;;;;4990577;28;20158;-69
2022/08/04 12:42:57;;;;;;;0.20;0.20;;;39.00;53.10;;;;;;4990356;28;20046;-69
2022/08/04 12:45:24;;;;;;;0.10;0.10;;;39.00;52.80;;;;;;4990781;28;20030;-69
2022/08/04 12:47:53;;;;;;;0.57;0.15;;;38.90;52.90;;;;;;4990183;28;20034;-68
2022/08/04 12:50:20;;;;;;;0.20;0.20;;;39.00;53.30;;;;;;4990346;28;20022;-68
2022/08/04 12:52:58;;;;;;;0.80;0.57;;;39.20;52.40;;;;;;4990661;28;20026;-68
2022/08/04 12:55:28;;;;;;;0.15;0.10;;;39.50;52.40;;;;;;4990681;28;20034;-68
2022/08/04 12:57:55;;;;;;;0.20;0.20;;;39.00;52.00;;;;;;4990411;28;20030;-68
2022/08/04 13:00:54;;;;;;;0.17;0.03;;;38.90;52.10;;;;;;4989451;28;20497;-67
2022/08/04 13:03:23;;;;;;;0.35;0.35;;;39.00;51.60;;;;;;4989809;28;20045;-67
2022/08/04 13:05:54;;;;;;;4.22;0.28;;;39.70;52.50;;;;;;4990715;28;20085;-68
2022/08/04 13:08:21;;;;;;;0.10;0.10;;;40.00;51.70;;;;;;4990513;28;20446;-68
2022/08/04 13:10:52;;;;;;;0.22;0.22;;;40.00;51.20;;;;;;4990665;28;20030;-68
2022/08/04 13:13:25;;;;;;;0.10;0.10;;;40.30;51.00;;;;;;4990020;28;20678;-67
2022/08/04 13:15:58;;;;;;;0.00;0.00;;;40.50;51.50;;;;;;4990318;28;20164;-68
2022/08/04 13:18:26;;;;;;;0.17;0.15;;;41.00;51.30;;;;;;4974323;28;20554;-67
2022/08/04 13:20:52;;;;;;;0.03;0.03;;;40.70;50.50;;;;;;4989135;28;20130;-68
2022/08/04 13:23:18;;;;;;;0.40;0.40;;;41.10;50.60;;;;;;4973491;28;20093;-68
2022/08/04 13:25:47;;;;;;;0.35;0.35;;;40.50;50.00;;;;;;4991172;28;20034;-68
2022/08/04 13:28:25;;;;;;;0.00;0.00;;;40.60;50.50;;;;;;4993063;28;20084;-68
2022/08/04 13:31:00;;;;;;;9.52;1.05;;;41.10;50.90;;;;;;4977911;28;20498;-69
2022/08/04 13:33:32;;;;;;;0.63;0.60;;;41.30;50.50;;;;;;4994703;28;20026;-68
2022/08/04 13:35:59;;;;;;;0.05;0.05;;;41.20;50.50;;;;;;4994356;28;20038;-67
2022/08/04 13:38:28;;;;;;;0.50;0.50;;;41.30;50.60;;;;;;4993981;28;20080;-67
2022/08/04 13:41:03;;;;;;;0.45;0.32;;;40.40;50.10;;;;;;4977534;28;20026;-68
2022/08/04 13:43:33;;;;;;;0.10;0.10;;;40.30;49.70;;;;;;4992350;28;20375;-68
2022/08/04 13:46:03;;;;;;;0.28;0.08;;;40.60;50.40;;;;;;4992549;28;20485;-68
2022/08/04 13:48:40;;;;;;;0.40;0.40;;;41.00;50.50;;;;;;4990369;28;20031;-68
2022/08/04 13:51:10;;;;;;;0.93;0.20;;;41.20;50.70;;;;;;4990597;28;20037;-68
2022/08/04 13:53:39;;;;;;;3.80;0.68;;;41.20;49.60;;;;;;4975042;28;20019;-68
2022/08/04 13:56:12;;;;;;;18.33;0.65;;;41.70;49.80;;;;;;4990450;28;20035;-68
2022/08/04 13:58:44;;;;;;;0.93;0.32;;;41.10;49.00;;;;;;4989630;28;20040;-69
2022/08/04 14:01:25;;;;;;;0.25;0.22;;;41.50;49.20;;;;;;4990642;28;20682;-68